Time;durP1;ratioP1;P1;durP2;ratioP2;P2;SDS_P1;SDS_P2;PMS_P1;PMS_P2;Temp;Humidity;BMP_temperature;BMP_pressure;BME280_temperature;BME280_humidity;BME280_pressure;Samples;Min_cycle;Max_cycle;Signal;HPM_P1;HPM_P2
2021/06/13 00:01:18;;;;;;;11.67;6.50;;;15.30;99.90;;;;;;5060778;28;20170;-72
2021/06/13 00:03:43;;;;;;;8.70;6.17;;;15.20;99.90;;;;;;5057319;28;20245;-71
2021/06/13 00:06:09;;;;;;;7.67;6.00;;;15.10;99.90;;;;;;5055794;28;20269;-72
2021/06/13 00:08:35;;;;;;;10.53;6.07;;;15.10;99.90;;;;;;5045578;28;20277;-72
2021/06/13 00:11:00;;;;;;;8.00;5.67;;;15.00;99.90;;;;;;5054979;28;20181;-71
2021/06/13 00:13:27;;;;;;;7.60;5.53;;;14.90;99.90;;;;;;5056355;28;20173;-72
2021/06/13 00:15:52;;;;;;;9.53;5.93;;;14.90;99.90;;;;;;5056108;28;20686;-70
2021/06/13 00:18:19;;;;;;;10.67;5.87;;;14.90;99.90;;;;;;5055923;28;20420;-71
2021/06/13 00:20:45;;;;;;;12.07;7.80;;;14.80;99.90;;;;;;5055703;28;20228;-72
2021/06/13 00:23:11;;;;;;;11.83;6.57;;;14.80;99.90;;;;;;5056086;28;20420;-72
2021/06/13 00:25:37;;;;;;;9.73;6.13;;;14.90;99.90;;;;;;5055423;28;20456;-72
2021/06/13 00:28:03;;;;;;;10.70;5.70;;;14.80;99.90;;;;;;5055540;28;20627;-72
2021/06/13 00:30:29;;;;;;;8.97;6.20;;;14.80;99.90;;;;;;5056162;28;20173;-72
2021/06/13 00:32:54;;;;;;;7.90;5.67;;;14.70;99.90;;;;;;5055906;28;20897;-72
2021/06/13 00:35:22;;;;;;;8.73;6.80;;;14.70;99.90;;;;;;5055475;28;20408;-72
2021/06/13 00:37:49;;;;;;;10.33;6.83;;;14.70;99.90;;;;;;5056949;28;20619;-72
2021/06/13 00:40:17;;;;;;;9.80;6.40;;;14.60;99.90;;;;;;5057310;28;20417;-72
2021/06/13 00:42:44;;;;;;;10.57;7.50;;;14.70;99.90;;;;;;5054417;28;20407;-73
2021/06/13 00:45:10;;;;;;;7.40;6.23;;;14.70;99.90;;;;;;5055640;28;20194;-71
2021/06/13 00:47:36;;;;;;;7.77;6.23;;;14.70;99.90;;;;;;5054910;28;20469;-72
2021/06/13 00:50:04;;;;;;;10.40;5.97;;;14.60;99.90;;;;;;5054986;28;20433;-73
2021/06/13 00:52:29;;;;;;;11.20;6.40;;;14.70;99.90;;;;;;5053581;28;20436;-73
2021/06/13 00:54:55;;;;;;;9.93;6.10;;;14.70;99.90;;;;;;5054765;28;20808;-73
2021/06/13 00:57:21;;;;;;;13.23;7.20;;;14.70;99.90;;;;;;5054559;28;20209;-74
2021/06/13 00:59:46;;;;;;;10.33;7.20;;;14.70;99.90;;;;;;5054361;28;20215;-72
2021/06/13 01:02:12;;;;;;;9.67;7.97;;;14.60;99.90;;;;;;5054769;28;20178;-73
2021/06/13 01:04:37;;;;;;;10.20;6.57;;;14.50;99.90;;;;;;5054783;28;20174;-72
2021/06/13 01:07:20;;;;;;;11.03;7.07;;;14.40;99.90;;;;;;5057463;28;20209;-72
2021/06/13 01:09:57;;;;;;;10.90;6.67;;;14.40;99.90;;;;;;5064565;28;20190;-72
2021/06/13 01:12:39;;;;;;;11.30;7.00;;;14.40;99.90;;;;;;5055412;28;20412;-72
2021/06/13 01:15:15;;;;;;;11.70;7.17;;;14.30;99.90;;;;;;5054456;28;20940;-71
2021/06/13 01:18:07;;;;;;;11.67;6.93;;;14.40;99.90;;;;;;5054462;28;20503;-72
2021/06/13 01:20:50;;;;;;;11.97;7.30;;;14.30;99.90;;;;;;5053492;28;20912;-71
2021/06/13 01:23:34;;;;;;;8.23;6.83;;;14.40;99.90;;;;;;5054512;28;20407;-71
2021/06/13 01:26:28;;;;;;;10.13;7.10;;;14.40;99.90;;;;;;5053528;28;21004;-72
2021/06/13 01:28:58;;;;;;;11.67;6.77;;;14.40;99.90;;;;;;5054087;28;20234;-72
2021/06/13 01:31:46;;;;;;;10.23;6.83;;;14.30;99.90;;;;;;5054508;28;20408;-72
2021/06/13 01:34:19;;;;;;;10.23;8.30;;;14.30;99.90;;;;;;5054073;28;20405;-71
2021/06/13 01:36:47;;;;;;;10.13;7.27;;;14.20;99.90;;;;;;5054167;28;20479;-74
2021/06/13 01:39:17;;;;;;;8.80;6.63;;;14.10;99.90;;;;;;5054115;28;20504;-74
2021/06/13 01:41:45;;;;;;;8.30;6.87;;;14.10;99.90;;;;;;5054318;28;20440;-72
2021/06/13 01:44:12;;;;;;;7.20;6.50;;;14.20;99.90;;;;;;5054592;28;20413;-72
2021/06/13 01:46:41;;;;;;;11.80;7.00;;;14.30;99.90;;;;;;5053735;28;20943;-73
2021/06/13 01:49:07;;;;;;;15.17;7.43;;;14.20;99.90;;;;;;5054083;28;20409;-73
2021/06/13 01:51:36;;;;;;;11.40;7.67;;;14.30;99.90;;;;;;5053609;28;20424;-73
2021/06/13 01:54:03;;;;;;;10.23;6.90;;;14.40;99.90;;;;;;5053617;28;20417;-73
2021/06/13 01:56:32;;;;;;;8.77;7.07;;;14.40;99.90;;;;;;5051282;28;20460;-72
2021/06/13 01:58:58;;;;;;;10.23;7.23;;;14.30;99.90;;;;;;5053510;28;20435;-72
2021/06/13 02:01:27;;;;;;;13.43;7.67;;;14.20;99.90;;;;;;5052249;28;21064;-72
2021/06/13 02:03:57;;;;;;;9.07;7.20;;;14.30;99.90;;;;;;5053489;28;20413;-73
2021/06/13 02:06:28;;;;;;;9.30;7.07;;;14.30;99.90;;;;;;5053844;28;21039;-72
2021/06/13 02:08:54;;;;;;;8.87;7.40;;;14.30;99.90;;;;;;5053027;28;20779;-72
2021/06/13 02:11:21;;;;;;;12.00;7.00;;;14.40;99.90;;;;;;5053505;28;20420;-73
2021/06/13 02:13:48;;;;;;;10.93;7.90;;;14.40;99.90;;;;;;5052409;28;20950;-72
2021/06/13 02:16:15;;;;;;;12.50;8.63;;;14.40;99.90;;;;;;5046129;28;20686;-73
2021/06/13 02:18:43;;;;;;;14.70;8.07;;;14.30;99.90;;;;;;5034742;28;20468;-72
2021/06/13 02:21:10;;;;;;;13.03;8.03;;;14.10;99.90;;;;;;5032092;28;20417;-72
2021/06/13 02:23:38;;;;;;;8.73;7.57;;;14.10;99.90;;;;;;5048361;28;20420;-72
2021/06/13 02:26:04;;;;;;;13.00;6.93;;;14.00;99.90;;;;;;5053579;28;20510;-72
2021/06/13 02:28:35;;;;;;;13.20;9.17;;;14.00;99.90;;;;;;5053483;28;20751;-72
2021/06/13 02:31:02;;;;;;;10.87;7.80;;;14.00;99.90;;;;;;5053392;28;20392;-72
2021/06/13 02:33:30;;;;;;;19.57;8.70;;;13.90;99.90;;;;;;5053228;28;20421;-72
2021/06/13 02:35:59;;;;;;;10.00;7.27;;;13.90;99.90;;;;;;5046485;28;20472;-72
2021/06/13 02:38:25;;;;;;;11.93;7.43;;;13.90;99.90;;;;;;5057921;28;20420;-73
2021/06/13 02:40:53;;;;;;;10.80;7.30;;;13.90;99.90;;;;;;5056926;28;20917;-73
2021/06/13 02:43:18;;;;;;;11.83;7.77;;;14.00;99.90;;;;;;5069059;28;20157;-73
2021/06/13 02:45:44;;;;;;;11.63;7.67;;;14.00;99.90;;;;;;5056823;28;20476;-73
2021/06/13 02:48:10;;;;;;;17.10;8.77;;;14.10;99.90;;;;;;5052945;28;20165;-73
2021/06/13 02:50:36;;;;;;;14.10;7.33;;;14.20;99.90;;;;;;5052911;28;20261;-73
2021/06/13 02:53:09;;;;;;;13.38;7.85;;;14.30;99.90;;;;;;5052719;28;20881;-73
2021/06/13 02:56:23;;;;;;;11.00;7.50;;;14.30;99.90;;;;;;5052796;28;20194;-73
2021/06/13 02:59:03;;;;;;;12.20;7.07;;;14.40;99.90;;;;;;5050591;28;20470;-73
2021/06/13 03:01:30;;;;;;;13.20;8.00;;;14.50;99.90;;;;;;5050405;28;20426;-73
2021/06/13 03:03:58;;;;;;;9.83;7.77;;;14.50;99.90;;;;;;5050807;28;20179;-72
2021/06/13 03:06:24;;;;;;;10.57;7.50;;;14.50;99.90;;;;;;5050646;28;20560;-72
2021/06/13 03:08:50;;;;;;;11.40;7.50;;;14.50;99.90;;;;;;5050761;28;20417;-73
2021/06/13 03:11:22;;;;;;;8.50;7.17;;;14.50;99.90;;;;;;5051120;28;20466;-73
2021/06/13 03:13:48;;;;;;;10.77;8.10;;;14.50;99.90;;;;;;5050838;28;20654;-72
2021/06/13 03:16:16;;;;;;;10.10;7.33;;;14.50;99.90;;;;;;5050302;28;20539;-73
2021/06/13 03:18:43;;;;;;;12.10;8.20;;;14.30;99.90;;;;;;5050582;28;20498;-72
2021/06/13 03:21:11;;;;;;;14.03;8.57;;;14.20;99.90;;;;;;5053191;28;20411;-73
2021/06/13 03:23:38;;;;;;;12.40;8.00;;;14.30;99.90;;;;;;5054448;28;20424;-72
2021/06/13 03:26:05;;;;;;;13.33;7.87;;;14.20;99.90;;;;;;5054191;28;20496;-73
2021/06/13 03:28:33;;;;;;;11.77;7.70;;;14.10;99.90;;;;;;5053779;28;20463;-73
2021/06/13 03:31:00;;;;;;;11.83;8.47;;;14.10;99.90;;;;;;5054531;28;20438;-73
2021/06/13 03:33:28;;;;;;;12.10;7.80;;;14.00;99.90;;;;;;5054181;28;20504;-73
2021/06/13 03:35:56;;;;;;;14.27;8.90;;;13.90;99.90;;;;;;5055840;28;20525;-73
2021/06/13 03:38:22;;;;;;;11.00;7.53;;;13.80;99.90;;;;;;5055157;28;20462;-73
2021/06/13 03:40:49;;;;;;;11.90;7.53;;;13.70;99.90;;;;;;5056159;28;20428;-72
2021/06/13 03:43:15;;;;;;;13.80;9.60;;;13.70;99.90;;;;;;5056220;28;20451;-73
2021/06/13 03:45:41;;;;;;;12.13;8.50;;;13.70;99.90;;;;;;5056383;28;20471;-75
2021/06/13 03:48:09;;;;;;;12.68;8.73;;;13.70;99.90;;;;;;5054347;28;20422;-72
2021/06/13 03:50:35;;;;;;;10.90;8.67;;;13.70;99.90;;;;;;5043085;28;20244;-73
2021/06/13 03:53:02;;;;;;;11.57;7.43;;;13.80;99.90;;;;;;5056296;28;20405;-72
2021/06/13 03:55:29;;;;;;;11.60;8.47;;;13.80;99.90;;;;;;5056115;28;20186;-73
2021/06/13 03:57:56;;;;;;;10.70;7.50;;;13.70;99.90;;;;;;5054396;28;20420;-74
2021/06/13 04:00:25;;;;;;;13.13;8.30;;;13.70;99.90;;;;;;5056149;28;20477;-72
2021/06/13 04:02:51;;;;;;;13.07;8.03;;;13.80;99.90;;;;;;5055854;28;20420;-72
2021/06/13 04:05:20;;;;;;;9.97;7.90;;;13.90;99.90;;;;;;5055967;28;20437;-72
2021/06/13 04:07:46;;;;;;;12.00;7.33;;;13.90;99.90;;;;;;5056504;28;20417;-72
2021/06/13 04:10:13;;;;;;;7.60;6.40;;;13.80;99.90;;;;;;5056000;28;20778;-72
2021/06/13 04:12:40;;;;;;;12.87;7.20;;;13.80;99.90;;;;;;5055864;28;20448;-72
2021/06/13 04:15:07;;;;;;;11.27;7.93;;;13.90;99.90;;;;;;5055741;28;20428;-73
2021/06/13 04:17:33;;;;;;;8.60;6.50;;;14.00;99.90;;;;;;5056119;28;20405;-73
2021/06/13 04:20:02;;;;;;;13.00;7.67;;;14.10;99.90;;;;;;5055402;28;20906;-72
2021/06/13 04:22:28;;;;;;;9.13;7.17;;;14.00;99.90;;;;;;5055118;28;20515;-73
2021/06/13 04:24:54;;;;;;;11.87;8.13;;;13.90;99.90;;;;;;5054261;28;20478;-72
2021/06/13 04:27:25;;;;;;;8.67;6.70;;;13.80;99.90;;;;;;5055891;28;20480;-72
2021/06/13 04:29:51;;;;;;;12.82;8.27;;;13.80;99.90;;;;;;5055191;28;20469;-72
2021/06/13 04:32:18;;;;;;;9.80;7.53;;;13.60;99.90;;;;;;5054895;28;20253;-72
2021/06/13 04:34:43;;;;;;;13.13;7.23;;;13.50;99.90;;;;;;5055364;28;20409;-72
2021/06/13 04:37:10;;;;;;;11.30;7.25;;;13.50;99.90;;;;;;5056768;28;20537;-73
2021/06/13 04:39:37;;;;;;;11.43;7.67;;;13.40;99.90;;;;;;5059346;28;20196;-72
2021/06/13 04:42:06;;;;;;;12.00;7.03;;;13.40;99.90;;;;;;5058117;28;20432;-72
2021/06/13 04:44:32;;;;;;;9.73;6.47;;;13.40;99.90;;;;;;5044674;28;20826;-72
2021/06/13 04:46:58;;;;;;;10.27;6.80;;;13.40;99.90;;;;;;5038312;28;20485;-72
2021/06/13 04:49:23;;;;;;;12.00;6.83;;;13.40;99.90;;;;;;5038551;28;20402;-72
2021/06/13 04:51:57;;;;;;;11.17;7.47;;;13.50;99.90;;;;;;5045502;28;20178;-72
2021/06/13 04:54:25;;;;;;;9.30;6.70;;;13.50;99.90;;;;;;5055102;28;20205;-72
2021/06/13 04:57:15;;;;;;;11.00;6.93;;;13.60;99.90;;;;;;5055232;28;20420;-71
2021/06/13 04:59:41;;;;;;;16.33;7.03;;;13.60;99.90;;;;;;5055667;28;20416;-72
2021/06/13 05:02:06;;;;;;;12.87;7.33;;;13.60;99.90;;;;;;5057459;28;20413;-72
2021/06/13 05:04:32;;;;;;;7.93;6.50;;;13.70;99.90;;;;;;5054697;28;20230;-72
2021/06/13 05:07:03;;;;;;;10.20;6.77;;;13.80;99.90;;;;;;5054849;28;20583;-72
2021/06/13 05:09:28;;;;;;;11.70;7.10;;;13.80;99.90;;;;;;5054622;28;20627;-72
2021/06/13 05:11:54;;;;;;;9.53;6.97;;;13.70;99.90;;;;;;5054939;28;20401;-72
2021/06/13 05:14:19;;;;;;;8.83;6.43;;;13.70;99.90;;;;;;5052618;28;20186;-72
2021/06/13 05:16:45;;;;;;;9.00;6.17;;;13.70;99.90;;;;;;5053434;28;20567;-74
2021/06/13 05:19:10;;;;;;;9.33;6.60;;;13.80;99.90;;;;;;5034586;28;20270;-72
2021/06/13 05:21:36;;;;;;;10.30;6.60;;;13.90;99.90;;;;;;5043572;28;20803;-73
2021/06/13 05:24:02;;;;;;;7.83;5.60;;;14.00;99.90;;;;;;5044676;28;20663;-72
2021/06/13 05:26:28;;;;;;;8.50;6.20;;;14.00;99.90;;;;;;5047110;28;20221;-72
2021/06/13 05:28:55;;;;;;;8.30;6.20;;;14.10;99.90;;;;;;5042461;28;20418;-72
2021/06/13 05:31:20;;;;;;;8.40;5.80;;;14.20;99.90;;;;;;5054700;28;20420;-73
2021/06/13 05:33:47;;;;;;;8.30;5.47;;;14.20;99.90;;;;;;5042428;28;20422;-72
2021/06/13 05:36:12;;;;;;;8.93;5.60;;;14.30;99.90;;;;;;5042928;28;20236;-72
2021/06/13 05:38:40;;;;;;;9.27;5.37;;;14.50;99.90;;;;;;5049609;28;20417;-73
2021/06/13 05:41:06;;;;;;;9.60;5.53;;;14.60;99.90;;;;;;5054223;28;20642;-73
2021/06/13 05:43:32;;;;;;;6.90;5.00;;;14.60;99.90;;;;;;5053610;28;20462;-73
2021/06/13 05:45:58;;;;;;;8.53;5.20;;;14.50;99.90;;;;;;5054177;28;20201;-73
2021/06/13 05:48:24;;;;;;;7.37;5.10;;;14.50;99.90;;;;;;5050067;28;20187;-73
2021/06/13 05:50:50;;;;;;;5.57;4.97;;;14.50;99.90;;;;;;5041408;28;20425;-74
2021/06/13 05:53:15;;;;;;;11.53;6.03;;;14.70;99.90;;;;;;5042469;28;20478;-73
2021/06/13 05:55:42;;;;;;;9.83;5.57;;;14.80;99.90;;;;;;5047707;28;20212;-72
2021/06/13 05:58:08;;;;;;;9.80;5.60;;;14.90;99.90;;;;;;5034315;28;20170;-73
2021/06/13 06:00:35;;;;;;;6.33;4.63;;;14.90;99.90;;;;;;5052052;28;20420;-72
2021/06/13 06:03:01;;;;;;;8.10;5.03;;;15.00;99.90;;;;;;5053672;28;20401;-73
2021/06/13 06:05:28;;;;;;;7.10;5.30;;;15.00;99.90;;;;;;5054020;28;20440;-72
2021/06/13 06:07:54;;;;;;;7.80;4.67;;;15.10;99.90;;;;;;5052622;28;20494;-73
2021/06/13 06:10:22;;;;;;;7.03;5.37;;;15.10;99.60;;;;;;5053316;28;20467;-73
2021/06/13 06:12:48;;;;;;;11.40;5.00;;;15.20;99.20;;;;;;5045699;28;20429;-73
2021/06/13 06:15:18;;;;;;;6.10;4.50;;;15.20;98.60;;;;;;5038874;28;20444;-73
2021/06/13 06:17:45;;;;;;;7.53;4.78;;;15.30;98.60;;;;;;5039351;28;20512;-72
2021/06/13 06:20:12;;;;;;;6.80;4.13;;;15.30;98.00;;;;;;5050043;28;20221;-72
2021/06/13 06:22:37;;;;;;;8.00;4.70;;;15.30;97.40;;;;;;5053245;28;20405;-72
2021/06/13 06:25:05;;;;;;;8.50;4.70;;;15.40;96.90;;;;;;5053426;28;20451;-72
2021/06/13 06:27:31;;;;;;;9.07;4.40;;;15.50;96.90;;;;;;5054112;28;20612;-72
2021/06/13 06:29:56;;;;;;;7.87;4.00;;;15.60;96.80;;;;;;5053639;28;20412;-73
2021/06/13 06:32:22;;;;;;;7.53;4.60;;;15.60;96.40;;;;;;5053196;28;20715;-72
2021/06/13 06:34:48;;;;;;;6.90;4.00;;;15.80;96.20;;;;;;5053025;28;20652;-72
2021/06/13 06:37:13;;;;;;;7.03;5.17;;;15.80;96.00;;;;;;5052251;28;20186;-72
2021/06/13 06:39:39;;;;;;;6.53;4.80;;;15.80;95.50;;;;;;5042810;28;20190;-74
2021/06/13 06:42:05;;;;;;;7.37;4.47;;;15.80;95.90;;;;;;5044357;28;20203;-72
2021/06/13 06:44:30;;;;;;;7.10;5.13;;;15.90;96.20;;;;;;5036021;28;20895;-73
2021/06/13 06:47:01;;;;;;;6.57;4.80;;;16.00;96.30;;;;;;5042059;28;20324;-72
2021/06/13 06:49:28;;;;;;;6.03;4.10;;;16.10;96.00;;;;;;5051583;28;20233;-72
2021/06/13 06:51:53;;;;;;;7.07;5.30;;;16.20;96.20;;;;;;5052854;28;20412;-74
2021/06/13 06:54:19;;;;;;;6.03;4.80;;;16.20;95.40;;;;;;5049408;28;20913;-72
2021/06/13 06:56:44;;;;;;;5.50;4.30;;;16.30;95.30;;;;;;5049645;28;20218;-73
2021/06/13 06:59:10;;;;;;;9.73;4.50;;;16.40;96.10;;;;;;5054966;28;20198;-71
2021/06/13 07:01:38;;;;;;;6.77;4.50;;;16.40;93.70;;;;;;5060357;28;20173;-72
2021/06/13 07:04:03;;;;;;;7.67;4.60;;;16.30;94.30;;;;;;5061229;28;20186;-71
2021/06/13 07:06:29;;;;;;;7.10;4.47;;;16.50;94.50;;;;;;5054792;28;21016;-73
2021/06/13 07:08:54;;;;;;;7.90;4.63;;;16.50;93.00;;;;;;5055201;28;20192;-73
2021/06/13 07:11:20;;;;;;;8.93;4.77;;;16.60;93.30;;;;;;5066751;28;20265;-73
2021/06/13 07:13:46;;;;;;;5.20;4.37;;;16.70;93.40;;;;;;5064741;28;20285;-72
2021/06/13 07:16:11;;;;;;;8.00;4.20;;;16.80;93.30;;;;;;5058012;28;20529;-73
2021/06/13 07:18:37;;;;;;;5.70;3.83;;;16.80;92.40;;;;;;5043268;28;20171;-73
2021/06/13 07:21:03;;;;;;;6.90;4.40;;;16.80;92.10;;;;;;5050599;28;20236;-73
2021/06/13 07:23:29;;;;;;;8.57;4.77;;;16.80;92.10;;;;;;5057396;28;21102;-73
2021/06/13 07:25:54;;;;;;;9.10;4.00;;;16.90;92.30;;;;;;5047893;28;20705;-73
2021/06/13 07:28:20;;;;;;;11.20;4.20;;;16.70;91.90;;;;;;5045614;28;20223;-72
2021/06/13 07:30:45;;;;;;;5.67;3.97;;;16.70;92.10;;;;;;5073211;28;20181;-73
2021/06/13 07:33:11;;;;;;;6.30;3.97;;;16.80;92.30;;;;;;5062541;28;20220;-72
2021/06/13 07:35:37;;;;;;;6.17;4.13;;;16.90;91.80;;;;;;5062250;28;20202;-73
2021/06/13 07:38:03;;;;;;;5.40;4.00;;;17.00;91.70;;;;;;5071249;28;20212;-72
2021/06/13 07:40:30;;;;;;;4.83;3.87;;;17.10;91.30;;;;;;5053915;28;20424;-74
2021/06/13 07:42:56;;;;;;;7.50;4.20;;;17.10;91.20;;;;;;5072699;28;20856;-74
2021/06/13 07:45:22;;;;;;;5.40;4.27;;;17.20;91.30;;;;;;5056859;28;20451;-73
2021/06/13 07:47:48;;;;;;;5.80;4.77;;;17.40;91.30;;;;;;5070981;28;20524;-71
2021/06/13 07:50:15;;;;;;;6.37;4.27;;;17.40;90.80;;;;;;5052142;28;20186;-72
2021/06/13 07:52:42;;;;;;;6.07;4.20;;;17.50;90.70;;;;;;5042640;28;20472;-71
2021/06/13 07:55:08;;;;;;;6.83;3.90;;;17.60;90.60;;;;;;5065726;28;20506;-73
2021/06/13 07:57:34;;;;;;;6.20;4.47;;;17.50;90.60;;;;;;5050017;28;20520;-73
2021/06/13 08:00:01;;;;;;;4.97;3.87;;;17.30;91.00;;;;;;5031919;28;20457;-74
2021/06/13 08:02:26;;;;;;;5.13;4.63;;;17.30;90.90;;;;;;5046432;28;20411;-74
2021/06/13 08:04:56;;;;;;;7.53;4.60;;;17.50;90.70;;;;;;5064105;28;20209;-73
2021/06/13 08:07:21;;;;;;;6.90;4.30;;;17.40;90.70;;;;;;5061620;28;20220;-73
2021/06/13 08:09:47;;;;;;;5.00;3.77;;;17.50;90.80;;;;;;5055301;28;20487;-73
2021/06/13 08:12:13;;;;;;;9.87;4.60;;;17.50;90.20;;;;;;5042479;28;20198;-73
2021/06/13 08:14:39;;;;;;;4.47;3.60;;;17.60;90.50;;;;;;5038231;28;20182;-74
2021/06/13 08:17:04;;;;;;;5.63;4.30;;;17.80;90.00;;;;;;5042085;28;20182;-73
2021/06/13 08:19:30;;;;;;;4.50;3.83;;;17.60;90.30;;;;;;5056975;28;20178;-73
2021/06/13 08:21:56;;;;;;;7.83;4.10;;;17.60;90.70;;;;;;5053827;28;20281;-73
2021/06/13 08:24:21;;;;;;;6.10;3.83;;;17.70;90.70;;;;;;5064852;28;20181;-73
2021/06/13 08:26:47;;;;;;;6.37;4.30;;;17.70;90.30;;;;;;5060204;28;20214;-75
2021/06/13 08:29:13;;;;;;;7.70;4.83;;;17.80;90.40;;;;;;5068620;28;20180;-72
2021/06/13 08:31:38;;;;;;;9.10;4.57;;;18.10;90.10;;;;;;5066343;28;20181;-73
2021/06/13 08:34:04;;;;;;;8.00;4.83;;;17.90;90.00;;;;;;5049950;28;20444;-73
2021/06/13 08:36:30;;;;;;;5.90;4.20;;;17.90;90.20;;;;;;5056417;28;20287;-73
2021/06/13 08:38:56;;;;;;;6.80;4.63;;;18.10;90.30;;;;;;5058289;28;20483;-73
2021/06/13 08:41:24;;;;;;;5.40;4.20;;;18.30;89.70;;;;;;5044955;28;20938;-75
2021/06/13 08:43:50;;;;;;;6.63;4.40;;;18.40;89.50;;;;;;5053934;28;20248;-73
2021/06/13 08:46:17;;;;;;;5.73;4.37;;;18.50;88.20;;;;;;5071816;28;20463;-73
2021/06/13 08:48:45;;;;;;;5.37;4.07;;;18.40;88.10;;;;;;5051741;28;20512;-73
2021/06/13 08:51:12;;;;;;;4.80;4.30;;;18.40;87.90;;;;;;5053499;28;20920;-74
2021/06/13 08:53:43;;;;;;;8.63;5.07;;;18.40;87.70;;;;;;5055201;28;20413;-74
2021/06/13 08:56:15;;;;;;;8.50;5.07;;;18.30;88.20;;;;;;5056345;28;20531;-74
2021/06/13 08:58:42;;;;;;;8.57;4.93;;;18.40;88.00;;;;;;5055113;28;20464;-74
2021/06/13 09:01:10;;;;;;;6.37;4.63;;;18.50;87.40;;;;;;5055265;28;20495;-72
2021/06/13 09:03:36;;;;;;;6.30;4.70;;;18.70;86.00;;;;;;5054669;28;20421;-74
2021/06/13 09:06:02;;;;;;;5.20;4.60;;;18.80;85.40;;;;;;5058100;28;20468;-73
2021/06/13 09:08:39;;;;;;;6.43;4.70;;;18.90;85.60;;;;;;5066153;28;20170;-74
2021/06/13 09:11:06;;;;;;;7.33;4.70;;;19.10;84.80;;;;;;5054980;28;20428;-74
2021/06/13 09:13:34;;;;;;;5.00;4.17;;;19.30;84.30;;;;;;5055448;28;20420;-74
2021/06/13 09:16:08;;;;;;;9.17;4.67;;;19.60;83.70;;;;;;5054977;28;20436;-74
2021/06/13 09:18:44;;;;;;;7.23;4.07;;;19.60;82.20;;;;;;5054550;28;20389;-74
2021/06/13 09:21:13;;;;;;;5.30;4.00;;;19.80;82.10;;;;;;5054809;28;20420;-73
2021/06/13 09:23:40;;;;;;;5.53;4.27;;;19.80;81.40;;;;;;5055352;28;20405;-74
2021/06/13 09:26:12;;;;;;;7.87;4.17;;;19.90;82.00;;;;;;5055375;28;20958;-72
2021/06/13 09:28:42;;;;;;;5.43;4.40;;;19.90;80.80;;;;;;5056181;28;20408;-73
2021/06/13 09:31:29;;;;;;;5.60;4.30;;;19.70;80.80;;;;;;5058973;28;20424;-73
2021/06/13 09:33:56;;;;;;;5.73;4.33;;;19.80;80.20;;;;;;5057051;28;20413;-72
2021/06/13 09:36:25;;;;;;;5.43;4.23;;;19.80;80.00;;;;;;5056962;28;20444;-73
2021/06/13 09:38:58;;;;;;;5.93;4.23;;;20.00;80.50;;;;;;5057006;28;20499;-73
2021/06/13 09:41:24;;;;;;;6.40;3.87;;;20.10;80.70;;;;;;5059617;28;20409;-74
2021/06/13 09:44:00;;;;;;;5.53;4.30;;;20.30;80.90;;;;;;5059775;28;20458;-74
2021/06/13 09:46:28;;;;;;;7.53;4.70;;;20.40;80.10;;;;;;5060039;28;20456;-72
2021/06/13 09:49:05;;;;;;;6.67;4.70;;;20.50;79.50;;;;;;5064514;28;20420;-71
2021/06/13 09:51:34;;;;;;;7.77;4.10;;;20.60;78.40;;;;;;5065525;28;20436;-73
2021/06/13 09:54:01;;;;;;;6.37;4.87;;;20.40;78.70;;;;;;5063622;28;20416;-71
2021/06/13 09:56:32;;;;;;;7.70;4.80;;;20.20;78.90;;;;;;5062384;28;20444;-72
2021/06/13 09:59:09;;;;;;;7.13;4.70;;;20.00;80.10;;;;;;5061164;28;20432;-74
2021/06/13 10:02:02;;;;;;;7.97;4.50;;;19.90;79.80;;;;;;5058916;28;20474;-73
2021/06/13 10:04:33;;;;;;;6.33;4.70;;;20.10;80.30;;;;;;5061110;28;20421;-73
2021/06/13 10:07:20;;;;;;;7.10;4.43;;;19.80;80.50;;;;;;5061325;28;20771;-76
2021/06/13 10:09:50;;;;;;;6.47;4.60;;;19.50;81.40;;;;;;5059372;28;20455;-73
2021/06/13 10:12:17;;;;;;;6.00;5.07;;;19.60;81.60;;;;;;5061588;28;20447;-73
2021/06/13 10:14:43;;;;;;;6.40;4.10;;;19.40;81.30;;;;;;5057672;28;20413;-73
2021/06/13 10:17:10;;;;;;;5.93;4.30;;;19.50;82.30;;;;;;5056484;28;20428;-74
2021/06/13 10:19:42;;;;;;;7.17;4.60;;;19.60;81.90;;;;;;5055592;28;20401;-72
2021/06/13 10:22:10;;;;;;;5.90;4.67;;;19.80;80.60;;;;;;5056000;28;20428;-73
2021/06/13 10:24:37;;;;;;;7.30;4.10;;;19.70;80.00;;;;;;5054765;28;20484;-72
2021/06/13 10:27:06;;;;;;;6.87;4.43;;;19.70;79.60;;;;;;5054272;28;20590;-73
2021/06/13 10:29:35;;;;;;;5.13;4.00;;;19.80;80.70;;;;;;5053775;28;20436;-74
2021/06/13 10:32:04;;;;;;;4.87;4.33;;;19.90;80.70;;;;;;5053843;28;20424;-74
2021/06/13 10:34:30;;;;;;;8.03;4.70;;;20.00;80.80;;;;;;5052312;28;20413;-73
2021/06/13 10:36:58;;;;;;;8.30;4.90;;;19.90;81.40;;;;;;5053819;28;20408;-73
2021/06/13 10:39:26;;;;;;;6.83;4.77;;;19.90;82.30;;;;;;5053680;28;20436;-73
2021/06/13 10:41:54;;;;;;;11.40;4.87;;;19.90;81.50;;;;;;5054757;28;20751;-73
2021/06/13 10:44:29;;;;;;;6.47;4.77;;;19.80;80.10;;;;;;5054597;28;20425;-73
2021/06/13 10:46:57;;;;;;;4.27;3.87;;;19.60;80.30;;;;;;5056202;28;20539;-74
2021/06/13 10:49:59;;;;;;;6.90;4.13;;;19.60;80.60;;;;;;5055108;28;20401;-73
2021/06/13 10:52:29;;;;;;;4.90;3.83;;;19.80;80.80;;;;;;5053599;28;20424;-72
2021/06/13 10:54:59;;;;;;;7.57;4.50;;;19.90;80.20;;;;;;5033478;28;20475;-72
2021/06/13 10:57:30;;;;;;;8.37;3.93;;;20.10;79.10;;;;;;5034094;28;20421;-73
2021/06/13 10:59:59;;;;;;;9.67;5.00;;;20.20;77.70;;;;;;5033798;28;20437;-73
2021/06/13 11:02:37;;;;;;;4.70;4.00;;;20.00;78.10;;;;;;5033520;28;20497;-73
2021/06/13 11:05:05;;;;;;;5.63;4.37;;;19.90;76.90;;;;;;5049343;28;20475;-73
2021/06/13 11:07:39;;;;;;;6.07;4.37;;;19.90;77.30;;;;;;5053487;28;20569;-73
2021/06/13 11:12:46;;;;;;;5.97;4.17;;;20.00;73.00;;;;;;5053691;28;20445;-72
2021/06/13 11:15:15;;;;;;;7.33;3.70;;;19.80;73.10;;;;;;5052590;28;20599;-73
2021/06/13 11:18:00;;;;;;;3.87;3.50;;;19.90;72.80;;;;;;5053158;28;20413;-73
2021/06/13 11:23:09;;;;;;;5.83;4.30;;;20.20;72.80;;;;;;5053612;28;20405;-73
2021/06/13 11:25:39;;;;;;;4.40;4.00;;;20.30;73.80;;;;;;5052490;28;20833;-73
2021/06/13 11:28:15;;;;;;;6.23;4.50;;;20.30;75.10;;;;;;5053558;28;20769;-74
2021/06/13 11:30:53;;;;;;;9.27;4.77;;;20.40;75.80;;;;;;5052758;28;20872;-73
2021/06/13 11:33:40;;;;;;;5.93;4.80;;;20.40;74.10;;;;;;5052824;28;20447;-73
2021/06/13 11:36:22;;;;;;;8.00;4.70;;;20.40;75.30;;;;;;5052935;28;20467;-73
2021/06/13 11:38:51;;;;;;;9.03;4.30;;;20.40;75.30;;;;;;5055171;28;20409;-73
2021/06/13 11:41:28;;;;;;;6.70;4.40;;;20.40;74.60;;;;;;5054383;28;20432;-73
2021/06/13 11:43:55;;;;;;;5.30;4.20;;;20.30;74.50;;;;;;5056892;28;20738;-74
2021/06/13 11:46:32;;;;;;;5.40;4.50;;;20.30;75.50;;;;;;5055956;28;21075;-73
2021/06/13 11:48:57;;;;;;;6.70;4.60;;;20.20;74.10;;;;;;5057118;28;20408;-72
2021/06/13 11:51:23;;;;;;;7.70;4.40;;;20.20;74.20;;;;;;5056305;28;20807;-72
2021/06/13 11:53:58;;;;;;;12.93;5.20;;;20.30;74.90;;;;;;5056136;28;20194;-74
2021/06/13 11:56:33;;;;;;;5.83;4.27;;;20.40;74.50;;;;;;5055883;28;20436;-73
2021/06/13 11:58:59;;;;;;;5.03;4.20;;;20.40;71.30;;;;;;5036390;28;20420;-73
2021/06/13 12:01:25;;;;;;;4.93;3.43;;;20.30;70.40;;;;;;5037355;28;20911;-74
2021/06/13 12:03:51;;;;;;;7.20;3.87;;;20.30;69.10;;;;;;5038637;28;20429;-73
2021/06/13 12:06:20;;;;;;;5.73;4.30;;;20.30;69.30;;;;;;5036243;28;20461;-73
2021/06/13 12:08:48;;;;;;;8.43;4.70;;;20.30;70.20;;;;;;5051510;28;20560;-73
2021/06/13 12:11:46;;;;;;;7.10;4.20;;;20.40;71.00;;;;;;5056059;28;20401;-73
2021/06/13 12:14:40;;;;;;;8.97;4.03;;;20.40;69.60;;;;;;5053436;28;20925;-73
2021/06/13 12:17:21;;;;;;;5.87;4.40;;;20.50;69.20;;;;;;5054200;28;20420;-72
2021/06/13 12:19:55;;;;;;;5.78;3.88;;;20.50;67.50;;;;;;5052823;28;20884;-72
2021/06/13 12:22:41;;;;;;;4.40;3.77;;;20.60;66.10;;;;;;5053913;28;20235;-74
2021/06/13 12:27:49;;;;;;;7.40;4.20;;;20.50;64.30;;;;;;5053877;28;20493;-71
2021/06/13 12:30:21;;;;;;;6.37;3.70;;;20.60;65.70;;;;;;5053680;28;20451;-73
2021/06/13 12:33:14;;;;;;;4.67;3.50;;;20.50;62.20;;;;;;5053587;28;20417;-72
2021/06/13 12:35:41;;;;;;;4.80;4.00;;;20.60;62.50;;;;;;5053983;28;20838;-73
2021/06/13 12:38:25;;;;;;;4.50;4.10;;;20.70;63.30;;;;;;5053808;28;20823;-73
2021/06/13 12:40:58;;;;;;;4.90;3.70;;;20.70;63.90;;;;;;5052952;28;20444;-72
2021/06/13 12:43:38;;;;;;;5.73;3.97;;;20.80;65.30;;;;;;5053400;28;21044;-72
2021/06/13 12:46:06;;;;;;;5.40;3.73;;;20.80;64.00;;;;;;5053503;28;20818;-73
2021/06/13 12:48:32;;;;;;;4.03;3.63;;;20.80;64.20;;;;;;5053781;28;20508;-74
2021/06/13 12:50:58;;;;;;;6.13;3.73;;;20.80;64.40;;;;;;5046915;28;20503;-72
2021/06/13 12:53:31;;;;;;;7.37;4.40;;;20.80;64.70;;;;;;5054187;28;20166;-73
2021/06/13 12:55:57;;;;;;;6.60;3.80;;;20.90;64.40;;;;;;5048650;28;20302;-75
2021/06/13 12:58:23;;;;;;;6.33;3.73;;;20.90;63.50;;;;;;5029881;28;20523;-74
2021/06/13 13:00:49;;;;;;;4.80;3.70;;;20.90;64.30;;;;;;5045998;28;20193;-73